Time;durP1;ratioP1;P1;durP2;ratioP2;P2;SDS_P1;SDS_P2;PMS_P1;PMS_P2;Temp;Humidity;BMP_temperature;BMP_pressure;BME280_temperature;BME280_humidity;BME280_pressure;Samples;Min_cycle;Max_cycle;Signal;HPM_P1;HPM_P2
2021/11/11 00:01:46;;;;;;;162.57;78.20;;;;;;;-0.07;77.32;95752.48;1710032;83;21122;-57
2021/11/11 00:04:18;;;;;;;205.80;91.15;;;;;;;-0.08;77.39;95750.14;1709925;83;20934;-56
2021/11/11 00:06:42;;;;;;;201.15;95.12;;;;;;;-0.12;77.42;95761.43;1710827;83;21429;-58
2021/11/11 00:09:08;;;;;;;222.05;102.15;;;;;;;-0.19;77.65;95759.36;1712230;83;21029;-57
2021/11/11 00:11:35;;;;;;;208.05;94.60;;;;;;;-0.21;77.61;95749.47;1710467;83;21037;-56
2021/11/11 00:14:03;;;;;;;213.77;98.25;;;;;;;-0.26;77.89;95748.41;1709265;83;21126;-56
2021/11/11 00:16:31;;;;;;;218.80;96.32;;;;;;;-0.23;77.83;95759.09;1715429;82;21088;-56
2021/11/11 00:18:59;;;;;;;199.00;93.25;;;;;;;-0.28;77.75;95745.83;1708622;83;21115;-56
2021/11/11 00:21:27;;;;;;;181.10;82.95;;;;;;;-0.32;77.71;95750.38;1708893;83;21017;-57
2021/11/11 00:23:54;;;;;;;184.63;74.65;;;;;;;-0.40;77.73;95753.49;1709854;82;20950;-58
2021/11/11 00:26:20;;;;;;;161.95;71.35;;;;;;;-0.46;77.94;95744.66;1688370;84;21577;-56
2021/11/11 00:28:49;;;;;;;150.18;68.75;;;;;;;-0.43;78.37;95737.98;1709531;83;21051;-56
2021/11/11 00:31:16;;;;;;;168.62;74.32;;;;;;;-0.38;78.23;95731.53;1700822;82;21485;-57
2021/11/11 00:33:42;;;;;;;175.47;73.80;;;;;;;-0.29;78.19;95736.95;1708250;83;21005;-56
2021/11/11 00:36:09;;;;;;;184.80;77.37;;;;;;;-0.24;77.94;95731.25;1708348;82;21017;-57
2021/11/11 00:38:36;;;;;;;159.95;72.53;;;;;;;-0.22;77.72;95734.97;1710680;83;21831;-58
2021/11/11 00:41:03;;;;;;;184.85;76.92;;;;;;;-0.22;77.58;95736.32;1708946;83;20934;-55
2021/11/11 00:43:30;;;;;;;155.10;69.20;;;;;;;-0.23;78.04;95733.41;1682646;83;21031;-56
2021/11/11 00:45:59;;;;;;;167.90;74.65;;;;;;;-0.18;77.90;95725.00;1709857;83;21005;-56
2021/11/11 00:48:26;;;;;;;158.27;72.12;;;;;;;-0.18;77.71;95727.71;1712472;83;21104;-56
2021/11/11 00:50:53;;;;;;;178.15;77.85;;;;;;;-0.19;77.43;95719.39;1711941;83;21841;-56
2021/11/11 00:53:20;;;;;;;174.95;76.57;;;;;;;-0.21;77.18;95721.66;1703196;83;21159;-57
2021/11/11 00:55:46;;;;;;;194.15;85.20;;;;;;;-0.26;77.08;95723.30;1710831;83;20985;-57
2021/11/11 00:58:17;;;;;;;217.37;94.28;;;;;;;-0.34;77.04;95716.96;1710276;83;21093;-57
2021/11/11 01:00:43;;;;;;;225.87;93.55;;;;;;;-0.42;77.09;95713.11;1714137;83;21445;-56
2021/11/11 01:03:11;;;;;;;188.85;84.03;;;;;;;-0.45;77.14;95715.17;1710094;83;21114;-58
2021/11/11 01:05:39;;;;;;;143.02;65.62;;;;;;;-0.50;77.16;95710.82;1709943;83;21022;-57
2021/11/11 01:08:06;;;;;;;131.27;59.73;;;;;;;-0.54;77.14;95709.17;1711934;83;21556;-57
2021/11/11 01:10:34;;;;;;;128.23;58.52;;;;;;;-0.58;77.14;95705.61;1707125;83;21002;-56
2021/11/11 01:13:00;;;;;;;131.60;59.40;;;;;;;-0.60;77.17;95706.53;1708179;83;21447;-57
2021/11/11 01:15:31;;;;;;;122.92;56.68;;;;;;;-0.55;77.19;95710.30;1710126;83;21138;-57
2021/11/11 01:18:01;;;;;;;118.45;52.88;;;;;;;-0.54;77.00;95705.12;1710012;83;21021;-58
2021/11/11 01:20:28;;;;;;;122.53;56.02;;;;;;;-0.51;77.30;95705.75;1710673;83;21067;-56
2021/11/11 01:22:55;;;;;;;125.38;56.13;;;;;;;-0.50;76.95;95708.67;1709082;82;21057;-56
2021/11/11 01:25:24;;;;;;;114.37;54.53;;;;;;;-0.45;77.03;95698.95;1708974;83;20954;-57
2021/11/11 01:27:52;;;;;;;108.37;52.43;;;;;;;-0.40;77.13;95702.14;1707792;83;21080;-57
2021/11/11 01:30:21;;;;;;;215.72;89.10;;;;;;;-0.38;76.69;95703.15;1709726;83;20969;-57
2021/11/11 01:32:50;;;;;;;222.12;96.15;;;;;;;-0.39;76.46;95705.06;1688120;83;20961;-56
2021/11/11 01:35:17;;;;;;;222.52;96.57;;;;;;;-0.50;76.32;95700.02;1713416;83;21008;-56
2021/11/11 01:37:47;;;;;;;216.15;91.53;;;;;;;-0.56;76.47;95700.64;1713440;82;21503;-56
2021/11/11 01:40:16;;;;;;;186.57;79.50;;;;;;;-0.59;76.59;95695.95;1713959;82;21152;-56
2021/11/11 01:42:56;;;;;;;188.20;78.45;;;;;;;-0.60;76.55;95699.78;1710859;82;21465;-56
2021/11/11 01:45:39;;;;;;;224.02;81.57;;;;;;;-0.65;76.40;95688.67;1711454;83;20976;-56
2021/11/11 01:48:13;;;;;;;221.60;94.35;;;;;;;-0.68;76.51;95684.53;1700283;83;21117;-56
2021/11/11 01:50:41;;;;;;;217.40;91.67;;;;;;;-0.71;76.57;95690.65;1714623;83;20997;-57
2021/11/11 01:53:10;;;;;;;177.55;74.27;;;;;;;-0.74;76.79;95677.85;1711137;83;21188;-57
2021/11/11 01:55:40;;;;;;;165.05;70.78;;;;;;;-0.75;76.74;95672.23;1709774;83;21017;-58
2021/11/11 01:58:08;;;;;;;168.10;76.12;;;;;;;-0.73;76.98;95678.06;1710207;83;21102;-54
2021/11/11 02:00:43;;;;;;;162.32;68.62;;;;;;;-0.66;76.76;95684.97;1689476;83;20969;-57
2021/11/11 02:03:10;;;;;;;149.50;70.57;;;;;;;-0.63;76.70;95684.28;1705537;83;21002;-57
2021/11/11 02:05:55;;;;;;;180.10;80.85;;;;;;;-0.62;76.61;95679.86;1712801;83;21153;-57
2021/11/11 02:08:25;;;;;;;185.78;83.85;;;;;;;-0.62;76.16;95683.14;1712631;83;21055;-56
2021/11/11 02:10:54;;;;;;;188.52;85.75;;;;;;;-0.72;75.99;95675.03;1685624;83;21045;-57
2021/11/11 02:13:21;;;;;;;181.75;80.40;;;;;;;-0.82;76.01;95674.77;1707116;83;20969;-56
2021/11/11 02:15:48;;;;;;;163.95;71.60;;;;;;;-0.87;76.24;95672.34;1714103;83;21069;-56
2021/11/11 02:18:15;;;;;;;139.82;60.52;;;;;;;-0.86;76.46;95672.55;1711083;83;21195;-56
2021/11/11 02:20:44;;;;;;;166.05;71.95;;;;;;;-0.84;76.51;95670.28;1710860;82;20998;-57
2021/11/11 02:23:21;;;;;;;132.18;62.00;;;;;;;-0.86;76.25;95657.15;1712996;81;20947;-56
2021/11/11 02:26:00;;;;;;;148.82;59.50;;;;;;;-0.85;76.24;95661.97;1703255;83;21498;-56
2021/11/11 02:28:37;;;;;;;137.75;60.50;;;;;;;-0.84;76.08;95666.23;1707108;83;21091;-57
2021/11/11 02:31:04;;;;;;;132.00;59.30;;;;;;;-0.77;76.34;95669.88;1711580;83;21108;-56
2021/11/11 02:33:34;;;;;;;131.07;62.58;;;;;;;-0.67;76.07;95665.84;1711643;83;21438;-56
2021/11/11 02:36:00;;;;;;;122.45;54.95;;;;;;;-0.56;76.04;95664.16;1711141;83;20989;-57
2021/11/11 02:38:29;;;;;;;121.22;55.58;;;;;;;-0.45;75.55;95661.12;1685725;83;21053;-56
2021/11/11 02:40:56;;;;;;;123.38;56.83;;;;;;;-0.39;75.43;95659.11;1710763;83;21031;-56
2021/11/11 02:43:28;;;;;;;133.45;57.38;;;;;;;-0.27;75.22;95663.59;1712509;83;21903;-56
2021/11/11 02:45:52;;;;;;;191.68;89.75;;;;;;;-0.15;74.91;95655.34;1708495;83;21610;-56
2021/11/11 02:48:22;;;;;;;249.30;109.60;;;;;;;-0.18;74.16;95656.86;1709152;83;20985;-57
2021/11/11 02:50:51;;;;;;;183.07;77.78;;;;;;;-0.25;74.39;95661.34;1708050;83;21045;-55
2021/11/11 02:53:20;;;;;;;149.60;67.45;;;;;;;-0.37;73.94;95660.12;1712226;83;21061;-56
2021/11/11 02:55:50;;;;;;;164.32;74.22;;;;;;;-0.48;74.07;95661.80;1708600;82;21170;-57
2021/11/11 02:58:17;;;;;;;135.25;67.00;;;;;;;-0.44;74.18;95660.75;1716288;82;21096;-57
2021/11/11 03:00:50;;;;;;;144.60;68.20;;;;;;;-0.35;74.31;95656.48;1713059;83;21093;-56
2021/11/11 03:03:19;;;;;;;146.68;65.17;;;;;;;-0.29;73.71;95653.70;1712242;83;20997;-56
2021/11/11 03:05:45;;;;;;;132.07;60.40;;;;;;;-0.35;73.36;95659.98;1710122;83;21147;-56
2021/11/11 03:08:14;;;;;;;122.33;57.13;;;;;;;-0.37;73.68;95650.08;1688917;83;20909;-57
2021/11/11 03:10:47;;;;;;;111.47;52.67;;;;;;;-0.32;73.67;95649.02;1709029;83;20994;-57
2021/11/11 03:13:15;;;;;;;110.57;49.93;;;;;;;-0.28;73.13;95655.27;1684874;84;21119;-56
2021/11/11 03:15:42;;;;;;;120.55;50.98;;;;;;;-0.25;73.35;95650.52;1706397;83;20967;-55
2021/11/11 03:18:11;;;;;;;112.72;53.90;;;;;;;-0.18;73.23;95646.05;1716816;83;20982;-56
2021/11/11 03:20:38;;;;;;;109.25;54.10;;;;;;;-0.06;72.80;95651.86;1679908;83;21144;-56
2021/11/11 03:23:05;;;;;;;123.67;53.63;;;;;;;0.03;72.44;95647.80;1713413;82;20962;-57
2021/11/11 03:25:33;;;;;;;109.75;52.60;;;;;;;0.17;72.09;95639.36;1708835;83;21041;-56
2021/11/11 03:28:00;;;;;;;122.55;56.48;;;;;;;0.23;71.62;95639.86;1688781;83;21066;-57
2021/11/11 03:30:29;;;;;;;123.92;53.60;;;;;;;0.25;71.37;95642.98;1708198;82;21005;-56
2021/11/11 03:32:57;;;;;;;130.15;60.00;;;;;;;0.19;71.14;95641.14;1712670;82;21208;-57
2021/11/11 03:35:27;;;;;;;134.55;61.53;;;;;;;0.08;70.90;95640.73;1688186;83;21073;-56
2021/11/11 03:37:56;;;;;;;142.75;66.87;;;;;;;-0.02;71.10;95638.60;1710912;83;20965;-57
2021/11/11 03:40:27;;;;;;;149.30;68.02;;;;;;;-0.19;70.76;95647.16;1704063;82;21026;-56
2021/11/11 03:42:55;;;;;;;158.52;70.08;;;;;;;-0.31;71.33;95643.82;1704292;82;20985;-56
2021/11/11 03:45:22;;;;;;;140.43;62.13;;;;;;;-0.31;71.51;95644.62;1706010;83;21144;-57
2021/11/11 03:47:51;;;;;;;138.97;65.00;;;;;;;-0.28;71.22;95642.55;1705786;83;21517;-57
2021/11/11 03:50:19;;;;;;;128.75;59.63;;;;;;;-0.26;71.41;95643.55;1705060;82;21062;-56
2021/11/11 03:52:48;;;;;;;137.97;63.45;;;;;;;-0.21;71.50;95642.67;1710673;83;21045;-56
2021/11/11 03:55:16;;;;;;;141.53;68.55;;;;;;;-0.12;71.30;95644.61;1708150;82;21441;-56
2021/11/11 03:57:43;;;;;;;156.02;68.30;;;;;;;-0.09;71.11;95645.23;1708166;83;21136;-57
2021/11/11 04:00:14;;;;;;;143.82;68.05;;;;;;;-0.08;71.07;95644.69;1720719;82;21538;-60
2021/11/11 04:02:45;;;;;;;145.75;66.35;;;;;;;-0.15;70.61;95639.92;1706397;83;21002;-57
2021/11/11 04:05:13;;;;;;;137.77;64.80;;;;;;;-0.26;70.74;95642.97;1704277;83;21110;-57
2021/11/11 04:07:41;;;;;;;137.88;64.58;;;;;;;-0.30;70.76;95637.27;1698073;83;21467;-56
2021/11/11 04:10:09;;;;;;;125.97;58.85;;;;;;;-0.44;70.68;95635.08;1706718;83;21114;-57
2021/11/11 04:12:38;;;;;;;113.32;53.65;;;;;;;-0.59;70.83;95639.20;1703637;83;21014;-57
2021/11/11 04:15:06;;;;;;;120.65;53.65;;;;;;;-0.75;71.09;95641.17;1688808;84;20966;-57
2021/11/11 04:17:34;;;;;;;117.77;53.17;;;;;;;-0.92;71.60;95645.62;1703207;83;21045;-57
2021/11/11 04:20:01;;;;;;;120.90;55.20;;;;;;;-0.97;72.08;95643.97;1707318;83;20958;-57
2021/11/11 04:22:29;;;;;;;129.85;57.70;;;;;;;-0.94;72.25;95642.49;1707378;83;21167;-57
2021/11/11 04:24:57;;;;;;;126.15;55.65;;;;;;;-0.89;72.25;95640.30;1700615;83;21962;-56
2021/11/11 04:27:31;;;;;;;165.75;72.12;;;;;;;-0.75;72.32;95639.82;1714446;82;21012;-58
2021/11/11 04:30:07;;;;;;;156.82;66.80;;;;;;;-0.67;72.21;95638.83;1695867;83;21947;-57
2021/11/11 04:32:24;;;;;;;162.72;71.15;;;;;;;-0.66;71.97;95633.08;1710151;82;21608;-57
2021/11/11 04:34:56;;;;;;;138.65;61.63;;;;;;;-0.64;72.01;95634.06;1706884;82;21133;-57
2021/11/11 04:37:29;;;;;;;140.25;63.02;;;;;;;-0.64;71.64;95626.75;1708813;83;21041;-62
2021/11/11 04:43:04;;;;;;;145.00;60.60;;;;;;;-0.64;71.64;95621.91;1708673;83;21033;-56
2021/11/11 04:51:09;;;;;;;157.93;70.75;;;;;;;-0.47;70.96;95621.48;1710328;82;21434;-57
2021/11/11 05:01:50;;;;;;;149.18;69.53;;;;;;;-0.69;71.42;95621.64;1707195;83;21180;-57
2021/11/11 05:04:13;;;;;;;161.07;69.55;;;;;;;-0.75;71.04;95616.87;1710505;83;21571;-56
2021/11/11 05:06:41;;;;;;;152.07;64.55;;;;;;;-0.87;71.17;95613.73;1683455;83;21002;-57
2021/11/11 05:09:08;;;;;;;150.68;62.00;;;;;;;-0.86;71.58;95617.19;1706936;82;21013;-57
2021/11/11 05:11:37;;;;;;;153.90;64.70;;;;;;;-0.79;71.46;95617.36;1711986;82;21065;-57
2021/11/11 05:14:04;;;;;;;146.30;64.45;;;;;;;-0.71;71.13;95623.91;1707947;83;21541;-56
2021/11/11 05:16:30;;;;;;;125.47;59.63;;;;;;;-0.66;70.82;95621.48;1706364;83;21442;-56
2021/11/11 05:18:59;;;;;;;163.90;70.28;;;;;;;-0.67;70.91;95625.31;1714026;82;21083;-58
2021/11/11 05:21:27;;;;;;;169.95;78.25;;;;;;;-0.63;70.76;95627.55;1716617;83;21013;-57
2021/11/11 05:23:54;;;;;;;175.57;79.05;;;;;;;-0.63;70.39;95628.90;1717129;81;20962;-56
2021/11/11 05:26:22;;;;;;;167.85;75.47;;;;;;;-0.78;70.31;95620.28;1717347;83;21515;-57
2021/11/11 05:28:51;;;;;;;121.87;61.37;;;;;;;-0.80;70.78;95624.67;1711116;82;20946;-58
2021/11/11 05:31:18;;;;;;;103.67;52.83;;;;;;;-0.81;70.35;95620.98;1713700;83;20989;-59
2021/11/11 05:33:44;;;;;;;118.77;56.75;;;;;;;-0.86;70.37;95630.70;1715459;83;21206;-58
2021/11/11 05:36:12;;;;;;;142.25;68.37;;;;;;;-0.88;70.74;95630.27;1713241;83;20974;-58
2021/11/11 05:38:38;;;;;;;155.12;63.73;;;;;;;-0.84;71.00;95634.63;1714346;83;21051;-58
2021/11/11 05:41:05;;;;;;;133.57;59.93;;;;;;;-0.80;70.97;95627.95;1711277;82;21112;-59
2021/11/11 05:43:34;;;;;;;151.97;63.42;;;;;;;-0.78;70.95;95625.68;1712317;83;20969;-57
2021/11/11 05:46:00;;;;;;;148.75;58.55;;;;;;;-0.71;70.98;95636.06;1706242;83;20966;-57
2021/11/11 05:48:27;;;;;;;114.03;51.48;;;;;;;-0.62;70.84;95639.33;1707368;83;21033;-58
2021/11/11 05:50:53;;;;;;;142.22;61.23;;;;;;;-0.56;70.39;95641.19;1704806;83;21180;-57
2021/11/11 05:53:21;;;;;;;144.40;63.38;;;;;;;-0.53;70.17;95639.13;1694318;82;20965;-58
2021/11/11 05:55:48;;;;;;;131.10;58.75;;;;;;;-0.46;69.94;95629.80;1718612;83;20986;-56
2021/11/11 05:58:17;;;;;;;141.45;63.85;;;;;;;-0.43;69.56;95624.48;1710144;83;21108;-58
2021/11/11 06:00:43;;;;;;;214.42;92.97;;;;;;;-0.41;69.52;95626.84;1706912;83;21422;-57
2021/11/11 06:03:19;;;;;;;264.75;111.08;;;;;;;-0.43;69.49;95633.17;1714558;83;21172;-58
2021/11/11 06:05:47;;;;;;;286.48;118.85;;;;;;;-0.47;69.59;95636.34;1715935;83;21477;-58
2021/11/11 06:08:15;;;;;;;277.98;117.50;;;;;;;-0.55;69.60;95633.30;1714500;82;21049;-58
2021/11/11 06:10:42;;;;;;;228.18;95.32;;;;;;;-0.64;70.06;95630.01;1713649;83;21450;-58
2021/11/11 06:13:09;;;;;;;191.88;84.07;;;;;;;-0.58;70.28;95630.73;1715347;83;21009;-63
2021/11/11 06:15:36;;;;;;;145.45;72.95;;;;;;;-0.45;70.37;95630.81;1711962;83;21067;-59
2021/11/11 06:18:03;;;;;;;170.40;81.30;;;;;;;-0.26;70.18;95630.81;1706146;83;21442;-60
2021/11/11 06:20:34;;;;;;;149.60;74.32;;;;;;;-0.09;69.86;95634.98;1707014;83;21010;-61
2021/11/11 06:23:02;;;;;;;;;;;;;;;0.07;69.53;95626.41;1711755;82;21469;-61
2021/11/11 06:25:31;;;;;;;196.32;96.10;;;;;;;0.23;69.20;95624.39;1706587;83;20145;-63
2021/11/11 06:27:59;;;;;;;227.97;118.47;;;;;;;0.32;68.99;95630.36;1706430;83;21887;-60
2021/11/11 06:30:26;;;;;;;254.03;118.77;;;;;;;0.30;68.88;95625.88;1714856;83;21032;-64
2021/11/11 06:32:52;;;;;;;259.57;122.22;;;;;;;0.20;68.93;95625.11;1713058;82;20974;-65
2021/11/11 06:35:20;;;;;;;254.70;110.75;;;;;;;0.10;68.98;95622.22;1706176;84;21057;-63
2021/11/11 06:37:46;;;;;;;248.93;113.65;;;;;;;-0.02;69.21;95613.50;1706316;83;21105;-67
2021/11/11 06:40:13;;;;;;;247.40;116.45;;;;;;;-0.04;69.72;95615.78;1708305;83;21199;-59
2021/11/11 06:42:39;;;;;;;217.55;99.32;;;;;;;-0.05;69.89;95612.28;1682566;82;21038;-62
2021/11/11 06:45:14;;;;;;;203.25;100.05;;;;;;;0.00;70.17;95617.42;1714411;82;21600;-62
2021/11/11 06:47:41;;;;;;;208.25;101.40;;;;;;;0.03;70.25;95609.34;1659897;85;21030;-62
2021/11/11 06:50:08;;;;;;;223.05;106.40;;;;;;;0.05;70.71;95604.36;1669329;85;21421;-62
2021/11/11 06:52:37;;;;;;;219.32;110.83;;;;;;;0.24;71.26;95609.72;1704589;82;21114;-61
2021/11/11 06:55:10;;;;;;;271.73;130.60;;;;;;;0.47;71.10;95609.16;1659184;84;21533;-65
2021/11/11 06:57:38;;;;;;;;;;;;;;;0.71;71.08;95608.77;1665298;83;21049;-61
2021/11/11 07:00:08;;;;;;;199.42;100.25;;;;;;;0.97;70.98;95608.77;1652361;84;20543;-63
2021/11/11 07:02:35;;;;;;;190.22;96.67;;;;;;;1.14;70.62;95604.18;1695617;82;21018;-63
2021/11/11 07:05:03;;;;;;;187.97;101.85;;;;;;;1.18;70.04;95598.23;1679425;82;21074;-61
2021/11/11 07:07:29;;;;;;;206.45;107.25;;;;;;;1.15;70.09;95597.61;1692832;82;21058;-61
2021/11/11 07:09:56;;;;;;;164.90;95.00;;;;;;;1.12;70.11;95594.87;1652052;83;21058;-62
2021/11/11 07:12:25;;;;;;;135.37;69.92;;;;;;;1.08;70.36;95592.11;1651249;85;21085;-63
2021/11/11 07:14:57;;;;;;;146.13;78.62;;;;;;;1.06;70.52;95591.69;1685410;83;21125;-62
2021/11/11 07:17:26;;;;;;;112.10;62.35;;;;;;;1.05;70.59;95590.13;1668642;83;22269;-63
2021/11/11 07:19:53;;;;;;;119.02;61.63;;;;;;;1.10;70.62;95579.56;1683465;82;21037;-63
2021/11/11 07:22:20;;;;;;;83.60;44.03;;;;;;;1.16;70.67;95578.84;1694041;83;21518;-62
2021/11/11 07:24:46;;;;;;;71.28;40.30;;;;;;;1.28;70.51;95581.34;1635688;84;21224;-63
2021/11/11 07:27:13;;;;;;;85.15;43.40;;;;;;;1.40;70.30;95576.26;1653538;85;21438;-61
2021/11/11 07:29:39;;;;;;;72.05;39.25;;;;;;;1.59;70.40;95568.77;1660721;85;21125;-60
2021/11/11 07:32:07;;;;;;;78.42;40.40;;;;;;;1.73;70.04;95577.05;1654583;85;22260;-59
2021/11/11 07:34:36;;;;;;;88.85;47.03;;;;;;;1.79;69.64;95565.50;1593879;86;21101;-62
2021/11/11 07:37:05;;;;;;;98.72;55.20;;;;;;;1.90;69.23;95562.89;1658166;85;21676;-62
2021/11/11 07:39:33;;;;;;;83.95;47.27;;;;;;;2.01;69.12;95557.01;1649764;86;21531;-67
2021/11/11 07:41:59;;;;;;;89.28;49.05;;;;;;;2.15;69.06;95554.44;1621000;86;21133;-62
2021/11/11 07:44:30;;;;;;;85.28;51.28;;;;;;;2.26;69.00;95548.52;1642197;86;21073;-63
2021/11/11 07:46:57;;;;;;;80.42;46.70;;;;;;;2.37;68.81;95550.75;1695872;82;21470;-61
2021/11/11 07:49:23;;;;;;;67.70;42.10;;;;;;;2.52;68.57;95546.41;1683503;81;21102;-61
2021/11/11 07:51:50;;;;;;;87.08;48.15;;;;;;;2.61;68.23;95542.02;1700388;82;21011;-60
2021/11/11 07:54:17;;;;;;;97.40;53.02;;;;;;;2.59;68.17;95540.26;1694299;82;21139;-63
2021/11/11 07:56:44;;;;;;;100.60;52.67;;;;;;;2.57;68.36;95539.86;1671520;82;21033;-63
2021/11/11 07:59:14;;;;;;;99.17;52.43;;;;;;;2.56;68.73;95536.94;1677267;81;21030;-66
2021/11/11 08:01:40;;;;;;;95.22;50.12;;;;;;;2.59;68.73;95541.05;1670556;82;21028;-65
2021/11/11 08:04:06;;;;;;;77.97;43.28;;;;;;;2.71;68.75;95533.17;1659654;83;21041;-64
2021/11/11 08:06:34;;;;;;;89.50;42.45;;;;;;;2.86;68.70;95532.13;1672432;82;21074;-65
2021/11/11 08:09:01;;;;;;;80.67;39.33;;;;;;;3.01;68.50;95531.02;1671676;81;21015;-64
2021/11/11 08:11:29;;;;;;;64.20;34.25;;;;;;;3.17;68.09;95528.22;1691238;81;21416;-62
2021/11/11 08:13:57;;;;;;;70.00;32.13;;;;;;;3.36;67.68;95529.84;1687468;81;21104;-64
2021/11/11 08:16:23;;;;;;;46.05;26.37;;;;;;;3.57;66.60;95526.08;1700516;81;21041;-63
2021/11/11 08:18:50;;;;;;;37.30;23.02;;;;;;;3.81;66.06;95524.58;1687859;82;21135;-65
2021/11/11 08:21:16;;;;;;;38.10;19.60;;;;;;;4.02;65.97;95514.52;1688468;82;21665;-60
2021/11/11 08:23:43;;;;;;;22.73;15.23;;;;;;;4.16;65.80;95517.27;1682119;82;21138;-63
2021/11/11 08:26:10;;;;;;;24.57;17.10;;;;;;;4.35;65.66;95518.83;1688844;83;21067;-61
2021/11/11 08:28:36;;;;;;;40.52;24.90;;;;;;;4.53;65.22;95511.44;1664554;82;21070;-63
2021/11/11 08:31:03;;;;;;;46.77;27.98;;;;;;;4.66;64.79;95499.78;1693128;82;21104;-60
2021/11/11 08:33:29;;;;;;;40.45;27.67;;;;;;;4.83;64.53;95497.59;1697471;83;22107;-62
2021/11/11 08:35:56;;;;;;;60.00;35.52;;;;;;;4.96;63.50;95500.70;1686918;83;20991;-63
2021/11/11 08:38:23;;;;;;;52.45;29.67;;;;;;;5.15;63.68;95494.21;1653746;83;21180;-61
2021/11/11 08:40:49;;;;;;;43.80;23.22;;;;;;;5.44;62.95;95502.51;1681862;83;21195;-60
2021/11/11 08:43:16;;;;;;;48.08;25.00;;;;;;;5.77;61.66;95497.28;1703209;82;21161;-65
2021/11/11 08:45:46;;;;;;;61.13;33.85;;;;;;;6.05;60.28;95488.17;1695846;82;21121;-63
2021/11/11 08:48:16;;;;;;;70.20;38.83;;;;;;;6.31;60.04;95492.48;1673359;82;21478;-66
2021/11/11 08:50:42;;;;;;;56.88;31.17;;;;;;;6.78;59.15;95493.67;1699667;82;21028;-64
2021/11/11 08:53:12;;;;;;;60.05;34.05;;;;;;;7.35;57.75;95483.13;1676264;82;21167;-64
2021/11/11 08:55:39;;;;;;;48.40;28.45;;;;;;;7.82;55.83;95480.77;1684115;81;21037;-63
2021/11/11 08:58:06;;;;;;;33.58;17.95;;;;;;;8.24;54.72;95480.98;1669204;82;21054;-65
2021/11/11 09:00:43;;;;;;;51.75;23.92;;;;;;;8.54;53.48;95475.45;1677040;81;21014;-64
2021/11/11 09:03:12;;;;;;;39.23;23.22;;;;;;;8.81;52.82;95467.92;1690304;83;21018;-63
2021/11/11 09:05:41;;;;;;;41.35;24.45;;;;;;;9.09;51.80;95461.95;1678064;82;21018;-64
2021/11/11 09:08:08;;;;;;;31.37;19.17;;;;;;;9.35;51.51;95461.05;1663941;82;21184;-64
2021/11/11 09:10:42;;;;;;;38.23;19.57;;;;;;;9.64;51.32;95456.56;1686647;82;22576;-64
2021/11/11 09:13:10;;;;;;;24.00;15.00;;;;;;;9.94;50.15;95457.09;1680270;81;22233;-63
2021/11/11 09:15:36;;;;;;;28.65;17.35;;;;;;;10.26;48.60;95451.70;1684403;81;21106;-66
2021/11/11 09:18:05;;;;;;;24.72;14.83;;;;;;;10.52;46.37;95452.67;1670370;82;21003;-66
2021/11/11 09:20:33;;;;;;;20.05;14.18;;;;;;;10.83;45.99;95449.89;1684491;81;21765;-61
2021/11/11 09:23:01;;;;;;;24.57;12.98;;;;;;;11.10;45.27;95446.84;1675051;82;22007;-64
2021/11/11 09:25:30;;;;;;;30.23;14.73;;;;;;;11.17;44.85;95446.06;1676315;82;21815;-64
2021/11/11 09:28:00;;;;;;;22.93;15.60;;;;;;;11.15;44.79;95434.70;1662179;83;22280;-66
2021/11/11 09:30:31;;;;;;;34.48;14.45;;;;;;;11.19;44.22;95435.37;1665271;83;21441;-66
2021/11/11 09:32:58;;;;;;;16.93;11.93;;;;;;;11.21;44.19;95432.96;1678776;81;21089;-64
2021/11/11 09:35:25;;;;;;;26.62;15.95;;;;;;;11.24;44.12;95425.23;1674717;82;21599;-64
2021/11/11 09:37:52;;;;;;;24.07;15.10;;;;;;;11.23;43.68;95419.55;1681315;81;21081;-63
2021/11/11 09:40:22;;;;;;;22.85;14.65;;;;;;;11.31;44.06;95409.88;1686726;82;22280;-65
2021/11/11 09:42:50;;;;;;;21.02;13.75;;;;;;;11.52;43.81;95405.14;1673067;82;21018;-63
2021/11/11 09:45:19;;;;;;;33.92;19.62;;;;;;;11.77;43.26;95399.73;1658136;82;21115;-64
2021/11/11 09:47:48;;;;;;;21.30;14.55;;;;;;;12.30;42.04;95390.59;1680264;82;21018;-64
2021/11/11 09:50:16;;;;;;;36.88;16.02;;;;;;;13.01;40.73;95391.21;1693375;82;21046;-66
2021/11/11 09:52:44;;;;;;;28.12;15.10;;;;;;;13.75;39.18;95383.79;1694885;81;21089;-64
2021/11/11 10:00:42;;;;;;;48.87;20.00;;;;;;;14.74;36.89;95369.19;1673043;82;20938;-64
2021/11/11 10:03:10;;;;;;;43.25;21.37;;;;;;;14.66;36.15;95361.00;1670435;82;21023;-64
2021/11/11 10:05:39;;;;;;;40.55;19.55;;;;;;;14.79;36.28;95363.03;1646069;83;21122;-63
2021/11/11 10:08:06;;;;;;;41.77;17.48;;;;;;;14.99;35.74;95366.14;1683690;82;21195;-65
2021/11/11 10:10:39;;;;;;;25.92;13.60;;;;;;;15.04;35.51;95358.59;1675428;82;21152;-63
2021/11/11 10:13:18;;;;;;;20.10;12.33;;;;;;;15.22;35.43;95353.68;1649345;84;21046;-60
2021/11/11 10:16:11;;;;;;;21.07;12.07;;;;;;;15.51;35.39;95354.77;1623777;85;21024;-65
2021/11/11 10:18:58;;;;;;;21.25;14.85;;;;;;;15.92;34.66;95363.03;1696349;82;21089;-63
2021/11/11 10:21:43;;;;;;;30.17;15.72;;;;;;;16.29;33.83;95355.48;1692275;82;21010;-62
2021/11/11 10:24:48;;;;;;;27.73;13.48;;;;;;;16.59;33.11;95347.52;1682496;81;22778;-64
2021/11/11 10:27:52;;;;;;;20.77;11.53;;;;;;;17.13;33.11;95342.37;1695823;81;21006;-65
2021/11/11 10:30:23;;;;;;;14.05;10.18;;;;;;;17.69;32.56;95342.25;1674482;83;21054;-65
2021/11/11 10:32:56;;;;;;;13.58;9.20;;;;;;;17.93;31.78;95328.22;1682421;82;21016;-64
2021/11/11 10:35:29;;;;;;;16.35;8.88;;;;;;;18.13;31.50;95323.52;1679423;82;21038;-64
2021/11/11 10:38:08;;;;;;;;;;;;;;;18.39;31.49;95317.48;1665869;83;21136;-62
2021/11/11 10:40:40;;;;;;;22.52;10.43;;;;;;;18.64;30.27;95315.47;1690866;81;20203;-64
2021/11/11 10:43:22;;;;;;;23.27;12.28;;;;;;;18.73;30.19;95310.54;1687042;82;21061;-63
2021/11/11 10:45:51;;;;;;;15.80;8.50;;;;;;;18.82;29.88;95295.70;1655551;82;21130;-64
2021/11/11 10:48:23;;;;;;;15.65;8.10;;;;;;;18.92;29.74;95294.30;1684130;81;21088;-65
2021/11/11 10:50:54;;;;;;;11.50;7.58;;;;;;;19.10;30.05;95286.43;1672882;82;22496;-64
2021/11/11 10:53:26;;;;;;;16.42;12.20;;;;;;;19.27;29.37;95281.84;1685709;82;20982;-64
2021/11/11 10:55:55;;;;;;;13.22;9.43;;;;;;;19.54;28.42;95276.42;1689776;83;21025;-65
2021/11/11 10:58:26;;;;;;;11.43;7.55;;;;;;;19.95;27.68;95281.36;1681297;83;20975;-63
2021/11/11 11:01:04;;;;;;;11.30;7.35;;;;;;;20.28;27.12;95279.65;1680338;83;21054;-64
2021/11/11 11:03:46;;;;;;;20.32;10.90;;;;;;;20.48;26.94;95272.55;1668427;83;22392;-63
2021/11/11 11:06:15;;;;;;;13.20;9.60;;;;;;;20.93;27.19;95267.34;1679534;81;21034;-66
2021/11/11 11:08:50;;;;;;;12.93;8.05;;;;;;;21.42;26.28;95261.80;1666781;82;21009;-64
2021/11/11 11:11:21;;;;;;;13.50;8.93;;;;;;;21.61;26.35;95267.06;1679255;82;21011;-66
2021/11/11 11:13:56;;;;;;;24.77;10.88;;;;;;;21.66;25.97;95261.52;1686067;82;22244;-64
2021/11/11 11:16:27;;;;;;;12.58;9.15;;;;;;;21.90;25.19;95256.84;1666293;81;21145;-62
2021/11/11 11:19:03;;;;;;;24.10;8.38;;;;;;;22.44;24.78;95250.50;1683506;83;21099;-63
2021/11/11 11:21:44;;;;;;;13.53;8.18;;;;;;;22.83;24.47;95248.37;1680702;82;21033;-63
2021/11/11 11:24:31;;;;;;;18.75;7.75;;;;;;;23.29;24.37;95250.64;1652634;82;21081;-66
2021/11/11 11:27:02;;;;;;;12.10;6.40;;;;;;;23.90;23.44;95244.05;1661182;83;21620;-65
2021/11/11 11:29:37;;;;;;;7.47;4.75;;;;;;;24.56;22.89;95246.34;1648136;83;21193;-64
2021/11/11 11:32:18;;;;;;;8.50;5.28;;;;;;;25.05;21.68;95239.39;1694733;82;20999;-62
2021/11/11 11:34:55;;;;;;;7.67;4.65;;;;;;;25.39;21.04;95243.36;1684084;83;21556;-65
2021/11/11 11:37:26;;;;;;;10.55;5.70;;;;;;;25.71;20.43;95241.39;1660547;83;21176;-63
2021/11/11 11:40:05;;;;;;;11.57;7.70;;;;;;;25.89;20.64;95229.37;1679504;83;21129;-63
2021/11/11 11:42:40;;;;;;;8.10;5.40;;;;;;;25.94;20.50;95226.47;1685239;83;21172;-65
2021/11/11 11:45:13;;;;;;;10.18;4.85;;;;;;;25.76;20.09;95220.81;1695534;82;21031;-66
2021/11/11 11:47:52;;;;;;;12.90;5.20;;;;;;;25.64;20.88;95220.88;1679967;82;21140;-65